sensor_id;sensor_type;location;lat;lon;timestamp;pressure;altitude;pressure_sealevel;temperature;humidity
54806;BME280;62866;55.776;37.496;2023-06-22T00:00:27;100069.44;;;15.04;54.70
54806;BME280;62866;55.776;37.496;2023-06-22T00:02:53;100062.59;;;15.02;54.58
54806;BME280;62866;55.776;37.496;2023-06-22T00:05:18;100069.66;;;15.03;54.58
54806;BME280;62866;55.776;37.496;2023-06-22T00:07:44;100084.34;;;15.07;54.50
54806;BME280;62866;55.776;37.496;2023-06-22T00:13:31;100082.50;;;15.01;54.64
54806;BME280;62866;55.776;37.496;2023-06-22T00:15:56;100068.19;;;15.00;54.78
54806;BME280;62866;55.776;37.496;2023-06-22T00:18:22;100071.53;;;14.96;54.66
54806;BME280;62866;55.776;37.496;2023-06-22T00:20:47;100046.47;;;14.82;54.69
54806;BME280;62866;55.776;37.496;2023-06-22T00:23:13;100073.81;;;14.92;54.84
54806;BME280;62866;55.776;37.496;2023-06-22T00:25:40;100076.09;;;14.89;55.16
54806;BME280;62866;55.776;37.496;2023-06-22T00:28:06;100082.72;;;14.93;55.06
54806;BME280;62866;55.776;37.496;2023-06-22T00:30:33;100073.19;;;14.84;55.29
54806;BME280;62866;55.776;37.496;2023-06-22T00:32:58;100080.66;;;14.88;55.25
54806;BME280;62866;55.776;37.496;2023-06-22T00:35:24;100078.56;;;14.84;55.17
54806;BME280;62866;55.776;37.496;2023-06-22T00:37:58;100065.97;;;14.77;55.29
54806;BME280;62866;55.776;37.496;2023-06-22T00:40:30;100068.84;;;14.82;55.43
54806;BME280;62866;55.776;37.496;2023-06-22T00:42:56;100068.44;;;14.79;55.54
54806;BME280;62866;55.776;37.496;2023-06-22T00:45:22;100070.31;;;14.78;55.77
54806;BME280;62866;55.776;37.496;2023-06-22T00:47:52;100069.06;;;14.74;55.88
54806;BME280;62866;55.776;37.496;2023-06-22T00:50:20;100073.41;;;14.75;55.90
54806;BME280;62866;55.776;37.496;2023-06-22T00:52:55;100049.84;;;14.64;55.83
54806;BME280;62866;55.776;37.496;2023-06-22T00:55:24;100068.44;;;14.66;56.17
54806;BME280;62866;55.776;37.496;2023-06-22T00:57:56;100054.81;;;14.61;56.04
54806;BME280;62866;55.776;37.496;2023-06-22T01:00:23;100078.59;;;14.70;56.31
54806;BME280;62866;55.776;37.496;2023-06-22T01:02:50;100072.38;;;14.70;56.14
54806;BME280;62866;55.776;37.496;2023-06-22T01:05:19;100047.13;;;14.51;56.32
54806;BME280;62866;55.776;37.496;2023-06-22T01:08:04;100070.53;;;14.64;56.74
54806;BME280;62866;55.776;37.496;2023-06-22T01:13:03;100075.28;;;14.68;56.78
54806;BME280;62866;55.776;37.496;2023-06-22T01:15:53;100074.66;;;14.66;56.11
54806;BME280;62866;55.776;37.496;2023-06-22T01:18:22;100070.75;;;14.62;56.76
54806;BME280;62866;55.776;37.496;2023-06-22T01:20:52;100091.44;;;14.68;56.82
54806;BME280;62866;55.776;37.496;2023-06-22T01:26:56;100083.75;;;14.65;57.18
54806;BME280;62866;55.776;37.496;2023-06-22T01:28:50;100085.84;;;14.63;57.27
54806;BME280;62866;55.776;37.496;2023-06-22T01:31:20;100067.00;;;14.57;57.37
54806;BME280;62866;55.776;37.496;2023-06-22T01:33:51;100085.22;;;14.68;57.26
54806;BME280;62866;55.776;37.496;2023-06-22T01:36:18;100093.91;;;14.70;57.42
54806;BME280;62866;55.776;37.496;2023-06-22T01:38:45;100083.56;;;14.73;57.50
54806;BME280;62866;55.776;37.496;2023-06-22T01:41:12;100078.41;;;14.72;57.60
54806;BME280;62866;55.776;37.496;2023-06-22T01:43:38;100061.63;;;14.63;57.50
54806;BME280;62866;55.776;37.496;2023-06-22T01:46:04;100079.22;;;14.72;57.73
54806;BME280;62866;55.776;37.496;2023-06-22T01:48:30;100083.34;;;14.75;57.93
54806;BME280;62866;55.776;37.496;2023-06-22T01:50:57;100079.81;;;14.74;57.70
54806;BME280;62866;55.776;37.496;2023-06-22T01:53:23;100081.91;;;14.79;57.86
54806;BME280;62866;55.776;37.496;2023-06-22T01:55:48;100085.00;;;14.82;58.08
54806;BME280;62866;55.776;37.496;2023-06-22T01:58:15;100084.41;;;14.80;58.29
54806;BME280;62866;55.776;37.496;2023-06-22T02:00:45;100090.16;;;14.91;58.33
54806;BME280;62866;55.776;37.496;2023-06-22T02:03:19;100076.94;;;14.89;58.13
54806;BME280;62866;55.776;37.496;2023-06-22T02:06:00;100081.25;;;15.03;57.98
54806;BME280;62866;55.776;37.496;2023-06-22T02:08:31;100069.66;;;15.03;58.34
54806;BME280;62866;55.776;37.496;2023-06-22T02:10:58;100076.47;;;15.12;58.16
54806;BME280;62866;55.776;37.496;2023-06-22T02:13:25;100075.41;;;15.19;58.30
54806;BME280;62866;55.776;37.496;2023-06-22T02:15:51;100076.84;;;15.29;58.41
54806;BME280;62866;55.776;37.496;2023-06-22T02:18:17;100069.13;;;15.39;58.02
54806;BME280;62866;55.776;37.496;2023-06-22T02:20:42;100063.50;;;15.47;58.03
54806;BME280;62866;55.776;37.496;2023-06-22T02:23:09;100070.31;;;15.63;57.67
54806;BME280;62866;55.776;37.496;2023-06-22T02:25:35;100060.13;;;15.71;57.23
54806;BME280;62866;55.776;37.496;2023-06-22T02:28:01;100022.03;;;15.54;56.81
54806;BME280;62866;55.776;37.496;2023-06-22T02:30:27;100052.88;;;15.65;57.44
54806;BME280;62866;55.776;37.496;2023-06-22T02:32:52;100040.88;;;15.61;57.74
54806;BME280;62866;55.776;37.496;2023-06-22T02:35:28;100049.78;;;15.62;57.71
54806;BME280;62866;55.776;37.496;2023-06-22T02:38:00;100038.97;;;15.68;57.62
54806;BME280;62866;55.776;37.496;2023-06-22T02:40:26;100056.50;;;15.84;57.31
54806;BME280;62866;55.776;37.496;2023-06-22T02:42:52;100040.13;;;15.85;57.32
54806;BME280;62866;55.776;37.496;2023-06-22T02:45:17;100047.31;;;15.98;56.99
54806;BME280;62866;55.776;37.496;2023-06-22T02:47:43;100050.00;;;15.98;56.99
54806;BME280;62866;55.776;37.496;2023-06-22T02:50:09;100050.91;;;16.17;56.41
54806;BME280;62866;55.776;37.496;2023-06-22T02:59:02;100049.31;;;16.59;53.98
54806;BME280;62866;55.776;37.496;2023-06-22T03:01:28;100029.59;;;16.65;53.21
54806;BME280;62866;55.776;37.496;2023-06-22T03:03:56;100029.22;;;16.80;52.71
54806;BME280;62866;55.776;37.496;2023-06-22T03:06:21;100032.59;;;16.93;52.21
54806;BME280;62866;55.776;37.496;2023-06-22T03:08:59;100027.97;;;17.00;52.00
54806;BME280;62866;55.776;37.496;2023-06-22T03:11:26;100031.56;;;17.13;51.58
54806;BME280;62866;55.776;37.496;2023-06-22T03:13:51;100026.63;;;17.28;51.08
54806;BME280;62866;55.776;37.496;2023-06-22T03:16:18;100037.94;;;17.36;51.10
54806;BME280;62866;55.776;37.496;2023-06-22T03:18:44;100010.31;;;17.34;50.78
54806;BME280;62866;55.776;37.496;2023-06-22T03:21:10;100026.41;;;17.59;50.34
54806;BME280;62866;55.776;37.496;2023-06-22T03:23:35;100019.78;;;17.62;50.62
54806;BME280;62866;55.776;37.496;2023-06-22T03:26:01;100009.47;;;17.52;50.46
54806;BME280;62866;55.776;37.496;2023-06-22T03:28:27;100008.28;;;17.48;50.73
54806;BME280;62866;55.776;37.496;2023-06-22T03:30:53;100012.38;;;17.51;51.13
54806;BME280;62866;55.776;37.496;2023-06-22T03:33:18;99994.25;;;17.39;50.98
54806;BME280;62866;55.776;37.496;2023-06-22T03:35:44;100001.22;;;17.47;50.78
54806;BME280;62866;55.776;37.496;2023-06-22T03:38:09;100013.09;;;17.46;50.78
54806;BME280;62866;55.776;37.496;2023-06-22T03:40:34;100006.03;;;17.45;50.96
54806;BME280;62866;55.776;37.496;2023-06-22T03:43:00;100011.81;;;17.49;50.85
54806;BME280;62866;55.776;37.496;2023-06-22T03:45:25;99999.47;;;17.53;50.65
54806;BME280;62866;55.776;37.496;2023-06-22T03:47:51;100002.91;;;17.60;50.51
54806;BME280;62866;55.776;37.496;2023-06-22T03:50:16;99991.19;;;17.66;50.50
54806;BME280;62866;55.776;37.496;2023-06-22T03:52:42;100006.44;;;17.78;50.26
54806;BME280;62866;55.776;37.496;2023-06-22T03:55:08;99992.47;;;17.81;50.24
54806;BME280;62866;55.776;37.496;2023-06-22T03:57:36;99979.78;;;17.94;49.39
54806;BME280;62866;55.776;37.496;2023-06-22T04:00:01;99998.91;;;18.22;49.31
54806;BME280;62866;55.776;37.496;2023-06-22T04:02:30;99990.53;;;18.35;48.96
54806;BME280;62866;55.776;37.496;2023-06-22T04:04:56;100001.03;;;18.55;48.56
54806;BME280;62866;55.776;37.496;2023-06-22T04:07:21;99994.59;;;18.68;48.29
54806;BME280;62866;55.776;37.496;2023-06-22T04:09:47;99990.22;;;18.78;48.51
54806;BME280;62866;55.776;37.496;2023-06-22T04:12:12;99987.75;;;18.88;48.31
54806;BME280;62866;55.776;37.496;2023-06-22T04:14:38;99984.44;;;18.98;48.34
54806;BME280;62866;55.776;37.496;2023-06-22T04:17:04;99981.69;;;19.10;47.89
54806;BME280;62866;55.776;37.496;2023-06-22T04:19:30;99969.03;;;19.27;47.76
54806;BME280;62866;55.776;37.496;2023-06-22T04:21:55;99981.22;;;19.53;47.08
54806;BME280;62866;55.776;37.496;2023-06-22T04:24:21;99988.19;;;19.77;46.93
54806;BME280;62866;55.776;37.496;2023-06-22T04:26:46;99987.91;;;19.90;46.68
54806;BME280;62866;55.776;37.496;2023-06-22T04:29:12;99990.53;;;20.02;46.47
54806;BME280;62866;55.776;37.496;2023-06-22T04:31:38;99978.31;;;20.16;46.20
54806;BME280;62866;55.776;37.496;2023-06-22T04:34:05;99985.88;;;20.31;46.22
54806;BME280;62866;55.776;37.496;2023-06-22T04:36:37;99982.59;;;20.45;45.64
54806;BME280;62866;55.776;37.496;2023-06-22T04:39:08;99978.53;;;20.65;45.75
54806;BME280;62866;55.776;37.496;2023-06-22T04:41:36;99979.63;;;20.86;44.62
54806;BME280;62866;55.776;37.496;2023-06-22T04:44:15;99979.00;;;21.17;44.34
54806;BME280;62866;55.776;37.496;2023-06-22T04:47:00;99942.56;;;21.18;44.20
54806;BME280;62866;55.776;37.496;2023-06-22T04:49:28;99939.63;;;21.46;43.40
54806;BME280;62866;55.776;37.496;2023-06-22T04:52:04;99943.03;;;21.58;43.20
54806;BME280;62866;55.776;37.496;2023-06-22T04:54:30;99967.25;;;21.87;43.19
54806;BME280;62866;55.776;37.496;2023-06-22T04:57:01;99944.34;;;21.83;42.66
54806;BME280;62866;55.776;37.496;2023-06-22T04:59:29;99972.75;;;21.92;42.84
54806;BME280;62866;55.776;37.496;2023-06-22T05:01:59;99973.97;;;21.79;43.31
54806;BME280;62866;55.776;37.496;2023-06-22T05:04:25;99981.75;;;21.66;43.15
54806;BME280;62866;55.776;37.496;2023-06-22T05:06:53;99975.97;;;21.62;43.14
54806;BME280;62866;55.776;37.496;2023-06-22T05:09:19;99978.25;;;21.97;42.65
54806;BME280;62866;55.776;37.496;2023-06-22T05:11:45;99981.63;;;22.78;41.25
54806;BME280;62866;55.776;37.496;2023-06-22T05:14:11;99962.59;;;23.61;39.66
54806;BME280;62866;55.776;37.496;2023-06-22T05:16:37;99973.88;;;24.05;39.37
54806;BME280;62866;55.776;37.496;2023-06-22T05:19:03;99987.72;;;23.63;39.90
54806;BME280;62866;55.776;37.496;2023-06-22T05:21:29;99980.25;;;23.38;40.19
54806;BME280;62866;55.776;37.496;2023-06-22T05:23:56;99981.22;;;23.06;41.23
54806;BME280;62866;55.776;37.496;2023-06-22T05:26:28;99983.44;;;23.10;41.39
54806;BME280;62866;55.776;37.496;2023-06-22T05:28:54;99964.66;;;23.28;40.99
54806;BME280;62866;55.776;37.496;2023-06-22T05:31:20;99965.66;;;23.90;40.00
54806;BME280;62866;55.776;37.496;2023-06-22T05:33:46;99972.25;;;24.24;39.39
54806;BME280;62866;55.776;37.496;2023-06-22T05:36:12;99967.56;;;24.75;38.74
54806;BME280;62866;55.776;37.496;2023-06-22T05:38:38;99966.47;;;25.46;37.33
54806;BME280;62866;55.776;37.496;2023-06-22T05:41:04;99958.94;;;25.77;37.21
54806;BME280;62866;55.776;37.496;2023-06-22T05:43:30;99969.16;;;25.56;37.29
54806;BME280;62866;55.776;37.496;2023-06-22T05:45:56;99970.94;;;25.31;37.90
54806;BME280;62866;55.776;37.496;2023-06-22T05:48:22;99967.75;;;25.04;38.32
54806;BME280;62866;55.776;37.496;2023-06-22T05:50:47;99969.97;;;24.87;38.51
54806;BME280;62866;55.776;37.496;2023-06-22T05:53:13;99968.91;;;24.73;38.66
54806;BME280;62866;55.776;37.496;2023-06-22T05:55:38;99969.72;;;24.78;38.40
54806;BME280;62866;55.776;37.496;2023-06-22T05:58:04;99974.63;;;24.81;38.34
54806;BME280;62866;55.776;37.496;2023-06-22T06:00:30;99965.69;;;24.40;39.45
54806;BME280;62866;55.776;37.496;2023-06-22T06:02:55;99970.31;;;24.19;39.91
54806;BME280;62866;55.776;37.496;2023-06-22T06:05:21;99960.78;;;24.37;39.64
54806;BME280;62866;55.776;37.496;2023-06-22T06:07:46;99962.91;;;24.71;39.28
54806;BME280;62866;55.776;37.496;2023-06-22T06:10:12;99965.06;;;24.84;38.99
54806;BME280;62866;55.776;37.496;2023-06-22T06:12:38;99962.56;;;24.87;38.73
54806;BME280;62866;55.776;37.496;2023-06-22T06:15:04;99940.25;;;24.60;38.63
54806;BME280;62866;55.776;37.496;2023-06-22T06:17:30;99966.19;;;24.73;38.58
54806;BME280;62866;55.776;37.496;2023-06-22T06:19:56;99972.19;;;24.85;37.97
54806;BME280;62866;55.776;37.496;2023-06-22T06:22:21;99963.94;;;24.95;38.09
54806;BME280;62866;55.776;37.496;2023-06-22T06:24:49;99954.13;;;24.84;38.18
54806;BME280;62866;55.776;37.496;2023-06-22T06:27:14;99952.22;;;24.79;37.97
54806;BME280;62866;55.776;37.496;2023-06-22T06:29:40;99963.66;;;24.86;38.45
54806;BME280;62866;55.776;37.496;2023-06-22T06:32:05;99969.69;;;24.88;38.06
54806;BME280;62866;55.776;37.496;2023-06-22T06:34:31;99954.91;;;24.89;37.83
54806;BME280;62866;55.776;37.496;2023-06-22T06:36:57;99954.66;;;25.01;37.88
54806;BME280;62866;55.776;37.496;2023-06-22T06:39:22;99958.09;;;25.27;37.30
54806;BME280;62866;55.776;37.496;2023-06-22T06:41:48;99965.03;;;25.58;36.84
54806;BME280;62866;55.776;37.496;2023-06-22T06:44:13;99950.59;;;25.92;36.24
54806;BME280;62866;55.776;37.496;2023-06-22T06:46:39;99948.09;;;25.95;36.36
54806;BME280;62866;55.776;37.496;2023-06-22T06:49:04;99949.72;;;25.96;36.32
54806;BME280;62866;55.776;37.496;2023-06-22T06:51:30;99949.72;;;26.35;35.49
54806;BME280;62866;55.776;37.496;2023-06-22T06:53:55;99955.94;;;26.70;34.60
54806;BME280;62866;55.776;37.496;2023-06-22T06:56:21;99954.69;;;26.57;34.49
54806;BME280;62866;55.776;37.496;2023-06-22T06:58:46;99955.44;;;26.39;34.86
54806;BME280;62866;55.776;37.496;2023-06-22T07:01:12;99959.31;;;26.33;35.00
54806;BME280;62866;55.776;37.496;2023-06-22T07:03:38;99955.28;;;26.20;35.09
54806;BME280;62866;55.776;37.496;2023-06-22T07:06:05;99956.44;;;26.14;35.50
54806;BME280;62866;55.776;37.496;2023-06-22T07:08:30;99947.25;;;26.00;35.87
54806;BME280;62866;55.776;37.496;2023-06-22T07:10:56;99949.91;;;25.76;35.85
54806;BME280;62866;55.776;37.496;2023-06-22T07:13:22;99957.63;;;25.69;35.92
54806;BME280;62866;55.776;37.496;2023-06-22T07:15:47;99961.47;;;25.68;36.24
54806;BME280;62866;55.776;37.496;2023-06-22T07:18:13;99962.28;;;25.63;36.96
54806;BME280;62866;55.776;37.496;2023-06-22T07:20:39;99950.50;;;25.63;36.13
54806;BME280;62866;55.776;37.496;2023-06-22T07:23:07;99946.13;;;25.67;36.52
54806;BME280;62866;55.776;37.496;2023-06-22T07:25:32;99951.88;;;25.65;37.09
54806;BME280;62866;55.776;37.496;2023-06-22T07:28:00;99950.31;;;25.44;36.97
54806;BME280;62866;55.776;37.496;2023-06-22T07:30:27;99946.22;;;25.47;37.11
54806;BME280;62866;55.776;37.496;2023-06-22T07:32:53;99943.72;;;25.50;36.86
54806;BME280;62866;55.776;37.496;2023-06-22T07:35:19;99945.09;;;25.48;37.33
54806;BME280;62866;55.776;37.496;2023-06-22T07:37:44;99930.13;;;25.35;36.44
54806;BME280;62866;55.776;37.496;2023-06-22T07:40:10;99943.22;;;25.43;36.81
54806;BME280;62866;55.776;37.496;2023-06-22T07:42:36;99951.63;;;25.57;36.53
54806;BME280;62866;55.776;37.496;2023-06-22T07:45:03;99951.59;;;25.67;36.57
54806;BME280;62866;55.776;37.496;2023-06-22T07:47:29;99943.59;;;25.76;36.68
54806;BME280;62866;55.776;37.496;2023-06-22T07:49:55;99945.72;;;25.84;35.84
54806;BME280;62866;55.776;37.496;2023-06-22T07:52:23;99946.28;;;25.86;35.96
54806;BME280;62866;55.776;37.496;2023-06-22T07:54:49;99934.09;;;25.63;36.41
54806;BME280;62866;55.776;37.496;2023-06-22T07:57:15;99940.50;;;25.38;37.57
54806;BME280;62866;55.776;37.496;2023-06-22T07:59:40;99938.91;;;25.32;37.27
54806;BME280;62866;55.776;37.496;2023-06-22T08:02:06;99940.31;;;25.19;37.10
54806;BME280;62866;55.776;37.496;2023-06-22T08:04:33;99933.75;;;25.20;37.40
54806;BME280;62866;55.776;37.496;2023-06-22T08:07:00;99926.72;;;25.04;37.01
54806;BME280;62866;55.776;37.496;2023-06-22T08:09:28;99939.34;;;25.00;37.35
54806;BME280;62866;55.776;37.496;2023-06-22T08:11:53;99931.38;;;25.04;36.84
54806;BME280;62866;55.776;37.496;2023-06-22T08:14:20;99910.38;;;24.79;37.47
54806;BME280;62866;55.776;37.496;2023-06-22T08:16:46;99931.94;;;24.90;37.47
54806;BME280;62866;55.776;37.496;2023-06-22T08:19:12;99925.03;;;25.13;37.67
54806;BME280;62866;55.776;37.496;2023-06-22T08:21:37;99921.19;;;25.14;38.16
54806;BME280;62866;55.776;37.496;2023-06-22T08:24:03;99931.25;;;25.29;37.66
54806;BME280;62866;55.776;37.496;2023-06-22T08:26:29;99920.94;;;25.16;37.88
54806;BME280;62866;55.776;37.496;2023-06-22T08:28:54;99915.47;;;25.11;37.21
54806;BME280;62866;55.776;37.496;2023-06-22T08:31:20;99911.97;;;25.49;37.07
54806;BME280;62866;55.776;37.496;2023-06-22T08:33:45;99921.06;;;26.18;35.86
54806;BME280;62866;55.776;37.496;2023-06-22T08:36:12;99907.16;;;26.67;35.40
54806;BME280;62866;55.776;37.496;2023-06-22T08:38:38;99921.19;;;27.32;34.43
54806;BME280;62866;55.776;37.496;2023-06-22T08:41:04;99919.81;;;28.04;33.75
54806;BME280;62866;55.776;37.496;2023-06-22T08:43:29;99899.97;;;28.07;34.04
54806;BME280;62866;55.776;37.496;2023-06-22T08:45:55;99903.16;;;28.14;33.32
54806;BME280;62866;55.776;37.496;2023-06-22T08:48:20;99892.94;;;28.01;33.09
54806;BME280;62866;55.776;37.496;2023-06-22T08:50:46;99899.97;;;27.75;33.77
54806;BME280;62866;55.776;37.496;2023-06-22T08:53:11;99899.28;;;27.45;34.09
54806;BME280;62866;55.776;37.496;2023-06-22T08:55:37;99895.56;;;27.17;34.41
54806;BME280;62866;55.776;37.496;2023-06-22T08:58:02;99897.28;;;26.90;34.30
54806;BME280;62866;55.776;37.496;2023-06-22T09:00:29;99892.72;;;27.04;34.49
54806;BME280;62866;55.776;37.496;2023-06-22T09:02:58;99893.50;;;27.47;34.35
54806;BME280;62866;55.776;37.496;2023-06-22T09:05:24;99894.25;;;27.71;34.01
54806;BME280;62866;55.776;37.496;2023-06-22T09:07:51;99887.22;;;27.65;34.06
54806;BME280;62866;55.776;37.496;2023-06-22T09:10:17;99887.41;;;27.50;34.25
54806;BME280;62866;55.776;37.496;2023-06-22T09:12:43;99880.81;;;27.32;34.46
54806;BME280;62866;55.776;37.496;2023-06-22T09:15:09;99878.28;;;27.17;34.26
54806;BME280;62866;55.776;37.496;2023-06-22T09:17:35;99873.84;;;27.02;34.63
54806;BME280;62866;55.776;37.496;2023-06-22T09:20:02;99877.00;;;26.91;34.90
54806;BME280;62866;55.776;37.496;2023-06-22T09:22:31;99880.72;;;27.00;34.76
54806;BME280;62866;55.776;37.496;2023-06-22T09:24:57;99857.59;;;26.82;34.38
54806;BME280;62866;55.776;37.496;2023-06-22T09:27:22;99850.22;;;26.59;34.24
54806;BME280;62866;55.776;37.496;2023-06-22T09:29:49;99877.50;;;26.45;34.67
54806;BME280;62866;55.776;37.496;2023-06-22T09:32:14;99876.34;;;26.27;35.08
54806;BME280;62866;55.776;37.496;2023-06-22T09:34:40;99870.13;;;25.83;35.57
54806;BME280;62866;55.776;37.496;2023-06-22T09:37:06;99865.84;;;25.72;35.87
54806;BME280;62866;55.776;37.496;2023-06-22T09:39:31;99869.16;;;25.68;35.69
54806;BME280;62866;55.776;37.496;2023-06-22T09:42:00;99864.75;;;25.73;36.20
54806;BME280;62866;55.776;37.496;2023-06-22T09:44:25;99859.81;;;25.69;36.23
54806;BME280;62866;55.776;37.496;2023-06-22T09:46:51;99849.13;;;25.73;35.94
54806;BME280;62866;55.776;37.496;2023-06-22T09:49:17;99855.78;;;25.62;36.44
54806;BME280;62866;55.776;37.496;2023-06-22T09:51:42;99855.22;;;25.65;36.73
54806;BME280;62866;55.776;37.496;2023-06-22T09:54:11;99853.84;;;25.67;36.47
54806;BME280;62866;55.776;37.496;2023-06-22T09:56:39;99849.41;;;25.72;36.01
54806;BME280;62866;55.776;37.496;2023-06-22T09:59:05;99853.25;;;25.70;36.47
54806;BME280;62866;55.776;37.496;2023-06-22T10:01:31;99854.34;;;25.69;36.61
54806;BME280;62866;55.776;37.496;2023-06-22T10:03:56;99847.47;;;25.72;36.09
54806;BME280;62866;55.776;37.496;2023-06-22T10:06:22;99845.63;;;25.67;36.50
54806;BME280;62866;55.776;37.496;2023-06-22T10:08:50;99840.69;;;25.64;36.65
54806;BME280;62866;55.776;37.496;2023-06-22T10:11:16;99838.44;;;25.72;37.13
54806;BME280;62866;55.776;37.496;2023-06-22T10:13:41;99820.72;;;25.64;36.85
54806;BME280;62866;55.776;37.496;2023-06-22T10:16:07;99834.81;;;25.81;37.13
54806;BME280;62866;55.776;37.496;2023-06-22T10:18:32;99831.59;;;25.74;37.10
54806;BME280;62866;55.776;37.496;2023-06-22T10:20:58;99821.31;;;25.56;36.99
54806;BME280;62866;55.776;37.496;2023-06-22T10:23:23;99823.00;;;25.52;37.47
54806;BME280;62866;55.776;37.496;2023-06-22T10:25:49;99805.69;;;25.56;37.15
54806;BME280;62866;55.776;37.496;2023-06-22T10:28:15;99809.44;;;25.70;36.84
54806;BME280;62866;55.776;37.496;2023-06-22T10:30:41;99811.25;;;25.80;36.99
54806;BME280;62866;55.776;37.496;2023-06-22T10:33:07;99800.84;;;25.82;36.25
54806;BME280;62866;55.776;37.496;2023-06-22T10:35:33;99794.44;;;25.63;37.11
54806;BME280;62866;55.776;37.496;2023-06-22T10:37:59;99794.88;;;25.75;36.50
54806;BME280;62866;55.776;37.496;2023-06-22T10:40:25;99796.28;;;25.73;36.19
54806;BME280;62866;55.776;37.496;2023-06-22T10:42:50;99796.03;;;25.69;36.42
54806;BME280;62866;55.776;37.496;2023-06-22T10:45:16;99795.50;;;25.67;36.86
54806;BME280;62866;55.776;37.496;2023-06-22T10:47:41;99798.00;;;25.63;36.89
54806;BME280;62866;55.776;37.496;2023-06-22T10:50:08;99791.75;;;25.53;36.69
54806;BME280;62866;55.776;37.496;2023-06-22T10:52:33;99800.28;;;25.51;37.25
54806;BME280;62866;55.776;37.496;2023-06-22T10:54:59;99782.78;;;25.47;37.03
54806;BME280;62866;55.776;37.496;2023-06-22T10:57:24;99780.00;;;25.52;37.64
54806;BME280;62866;55.776;37.496;2023-06-22T10:59:50;99781.63;;;25.53;37.52
54806;BME280;62866;55.776;37.496;2023-06-22T11:02:15;99784.41;;;25.48;37.12
54806;BME280;62866;55.776;37.496;2023-06-22T11:04:41;99777.06;;;25.44;37.48
54806;BME280;62866;55.776;37.496;2023-06-22T11:07:06;99747.81;;;25.39;37.44
54806;BME280;62866;55.776;37.496;2023-06-22T11:09:32;99771.00;;;25.47;37.26
54806;BME280;62866;55.776;37.496;2023-06-22T11:11:57;99765.19;;;25.53;37.00
54806;BME280;62866;55.776;37.496;2023-06-22T11:14:24;99753.19;;;25.49;36.89
54806;BME280;62866;55.776;37.496;2023-06-22T11:16:50;99763.78;;;25.61;37.30
54806;BME280;62866;55.776;37.496;2023-06-22T11:19:16;99758.75;;;25.73;37.04
54806;BME280;62866;55.776;37.496;2023-06-22T11:21:41;99756.25;;;25.77;36.80
54806;BME280;62866;55.776;37.496;2023-06-22T11:24:07;99762.22;;;25.84;37.08
54806;BME280;62866;55.776;37.496;2023-06-22T11:26:33;99763.31;;;25.83;37.58
54806;BME280;62866;55.776;37.496;2023-06-22T11:28:58;99752.53;;;25.91;37.26
54806;BME280;62866;55.776;37.496;2023-06-22T11:31:24;99744.34;;;25.86;37.06
54806;BME280;62866;55.776;37.496;2023-06-22T11:33:50;99751.81;;;25.81;37.39
54806;BME280;62866;55.776;37.496;2023-06-22T11:36:16;99744.09;;;25.54;37.72
54806;BME280;62866;55.776;37.496;2023-06-22T11:38:42;99750.09;;;25.61;37.74
54806;BME280;62866;55.776;37.496;2023-06-22T11:41:09;99744.03;;;25.64;37.38
54806;BME280;62866;55.776;37.496;2023-06-22T11:43:35;99737.25;;;25.56;37.84
54806;BME280;62866;55.776;37.496;2023-06-22T11:46:02;99745.16;;;25.63;38.19
54806;BME280;62866;55.776;37.496;2023-06-22T11:48:28;99736.91;;;25.68;37.35
54806;BME280;62866;55.776;37.496;2023-06-22T11:50:53;99733.84;;;25.69;37.23
54806;BME280;62866;55.776;37.496;2023-06-22T11:53:21;99728.06;;;25.76;37.19
54806;BME280;62866;55.776;37.496;2023-06-22T11:55:47;99724.72;;;25.79;37.36
54806;BME280;62866;55.776;37.496;2023-06-22T11:58:13;99719.50;;;25.83;37.51
54806;BME280;62866;55.776;37.496;2023-06-22T12:00:38;99709.34;;;25.83;37.19
54806;BME280;62866;55.776;37.496;2023-06-22T12:03:04;99702.47;;;25.86;37.26
54806;BME280;62866;55.776;37.496;2023-06-22T12:05:29;99700.53;;;25.86;38.32
54806;BME280;62866;55.776;37.496;2023-06-22T12:07:55;99692.81;;;25.93;37.72
54806;BME280;62866;55.776;37.496;2023-06-22T12:10:30;99699.59;;;25.96;37.31
54806;BME280;62866;55.776;37.496;2023-06-22T12:12:56;99687.78;;;26.00;37.38
54806;BME280;62866;55.776;37.496;2023-06-22T12:15:23;99695.56;;;26.12;37.57
54806;BME280;62866;55.776;37.496;2023-06-22T12:17:49;99671.88;;;26.21;36.70
54806;BME280;62866;55.776;37.496;2023-06-22T12:20:15;99688.63;;;26.43;36.44
54806;BME280;62866;55.776;37.496;2023-06-22T12:22:41;99684.91;;;26.53;36.58
54806;BME280;62866;55.776;37.496;2023-06-22T12:25:10;99685.56;;;26.45;36.47
54806;BME280;62866;55.776;37.496;2023-06-22T12:27:36;99675.34;;;26.32;36.50
54806;BME280;62866;55.776;37.496;2023-06-22T12:30:02;99675.09;;;26.28;36.88
54806;BME280;62866;55.776;37.496;2023-06-22T12:32:28;99663.38;;;26.23;36.37
54806;BME280;62866;55.776;37.496;2023-06-22T12:34:55;99676.75;;;26.05;36.68
54806;BME280;62866;55.776;37.496;2023-06-22T12:37:21;99667.34;;;25.93;36.38
54806;BME280;62866;55.776;37.496;2023-06-22T12:39:46;99663.53;;;25.65;36.86
54806;BME280;62866;55.776;37.496;2023-06-22T12:42:12;99666.13;;;25.51;37.60
54806;BME280;62866;55.776;37.496;2023-06-22T12:44:39;99666.56;;;25.35;37.88
54806;BME280;62866;55.776;37.496;2023-06-22T12:47:06;99665.09;;;25.18;38.54
54806;BME280;62866;55.776;37.496;2023-06-22T12:49:31;99661.31;;;25.09;38.66
54806;BME280;62866;55.776;37.496;2023-06-22T12:51:57;99631.94;;;24.86;38.09
54806;BME280;62866;55.776;37.496;2023-06-22T12:54:23;99655.44;;;24.92;38.43
54806;BME280;62866;55.776;37.496;2023-06-22T12:56:50;99651.56;;;24.98;37.41
54806;BME280;62866;55.776;37.496;2023-06-22T12:59:16;99657.78;;;25.09;37.45